createdAt,value
2022-12-03T09:27:52.962Z,5.01
2022-12-03T09:29:55.633Z,5.01
2022-12-03T09:31:57.915Z,4.78
2022-12-03T09:34:01.944Z,4.71
2022-12-03T09:36:04.857Z,4.82
2022-12-03T09:38:07.433Z,5.07
2022-12-03T09:40:11.256Z,5.12
2022-12-03T09:42:15.324Z,5.31
2022-12-03T09:44:18.412Z,5.33
2022-12-03T09:46:22.749Z,5.24
2022-12-03T09:48:26.181Z,5.45
2022-12-03T09:50:28.800Z,5.58
2022-12-03T09:52:34.071Z,5.75
2022-12-03T09:54:42.803Z,5.82
2022-12-03T09:56:55.682Z,6.10
2022-12-03T09:58:58.392Z,6.38
2022-12-03T10:01:00.905Z,6.43
2022-12-03T10:03:06.161Z,6.60
2022-12-03T10:05:09.096Z,7.08
2022-12-03T10:07:12.900Z,7.21
2022-12-03T10:09:22.277Z,7.64
2022-12-03T10:11:25.664Z,7.79
2022-12-03T10:13:30.819Z,7.51
2022-12-03T10:15:33.534Z,7.72
2022-12-03T10:17:35.822Z,7.98
2022-12-03T10:19:39.603Z,7.79
2022-12-03T10:21:42.220Z,7.21
2022-12-03T10:23:49.571Z,7.52
2022-12-03T10:25:56.179Z,7.62
2022-12-03T10:28:00.978Z,7.79
2022-12-03T10:30:14.373Z,7.88
2022-12-03T10:32:16.614Z,8.20
2022-12-03T10:34:33.906Z,7.71
2022-12-03T10:36:36.419Z,7.82
2022-12-03T10:38:38.686Z,7.99
2022-12-03T10:40:41.216Z,8.04
2022-12-03T10:42:43.540Z,8.37
2022-12-03T10:44:46.139Z,8.65
2022-12-03T10:47:13.472Z,8.34
2022-12-03T10:49:19.620Z,8.59
2022-12-03T10:51:22.220Z,8.45
2022-12-03T10:53:28.688Z,8.35
2022-12-03T10:55:39.075Z,8.06
2022-12-03T10:57:45.567Z,8.38
2022-12-03T10:59:48.747Z,8.22
2022-12-03T11:01:52.224Z,8.33
2022-12-03T11:04:02.202Z,8.43
2022-12-03T11:06:04.968Z,8.52
2022-12-03T11:08:15.994Z,8.43
2022-12-03T11:10:19.918Z,8.58
2022-12-03T11:12:25.509Z,8.68
2022-12-03T11:14:56.651Z,8.79
2022-12-03T11:16:59.108Z,8.91
2022-12-03T11:19:03.662Z,10.08
2022-12-03T11:21:08.796Z,10.95
2022-12-03T11:23:11.069Z,11.36
2022-12-03T11:25:25.598Z,11.60
2022-12-03T11:27:27.981Z,12.21
2022-12-03T11:29:52.019Z,12.77
2022-12-03T11:31:54.590Z,12.27
2022-12-03T11:34:18.860Z,13.16
2022-12-03T11:36:36.525Z,13.68
2022-12-03T11:38:54.024Z,13.26
2022-12-03T11:41:11.771Z,13.43
2022-12-03T11:43:14.332Z,14.00
2022-12-03T11:45:30.725Z,13.96
2022-12-03T11:47:34.531Z,14.76
2022-12-03T11:49:44.415Z,14.73
2022-12-03T11:51:47.128Z,14.83
2022-12-03T11:53:51.248Z,14.18
2022-12-03T11:56:08.587Z,14.52
2022-12-03T11:58:26.924Z,13.79
2022-12-03T12:00:29.503Z,12.64
2022-12-03T12:02:32.145Z,12.47
2022-12-03T12:04:38.099Z,12.12
2022-12-03T12:06:42.752Z,11.23
2022-12-03T12:08:51.267Z,11.29
2022-12-03T12:10:53.743Z,11.39
2022-12-03T12:12:57.371Z,11.61
2022-12-03T12:14:59.951Z,10.89
2022-12-03T12:17:03.714Z,10.78
2022-12-03T12:19:34.112Z,10.63
2022-12-03T12:21:50.011Z,10.96
2022-12-03T12:23:52.249Z,10.47
2022-12-03T12:26:06.314Z,10.64
2022-12-03T12:28:08.919Z,10.25
2022-12-03T12:30:18.369Z,10.09
2022-12-03T12:32:25.415Z,9.88
2022-12-03T12:34:28.120Z,9.71
2022-12-03T12:36:32.116Z,9.41
2022-12-03T12:38:34.383Z,8.82
2022-12-03T12:40:40.102Z,8.42
2022-12-03T12:43:12.614Z,8.38
2022-12-03T12:45:29.690Z,8.65
2022-12-03T12:47:32.515Z,8.77
2022-12-03T12:49:34.789Z,8.79
2022-12-03T12:51:42.941Z,8.62
2022-12-03T12:53:45.518Z,8.35
2022-12-03T12:55:58.572Z,8.07
2022-12-03T12:58:03.778Z,7.77
2022-12-03T13:00:07.001Z,7.68
2022-12-03T13:02:31.981Z,7.41
2022-12-03T13:04:39.986Z,7.58
2022-12-03T13:06:43.628Z,7.43
2022-12-03T13:08:48.965Z,7.30
2022-12-03T13:10:54.304Z,7.21
2022-12-03T13:12:57.690Z,7.43
2022-12-03T13:15:00.975Z,7.28
2022-12-03T13:17:15.555Z,7.48
2022-12-03T13:19:26.371Z,7.41
2022-12-03T13:21:38.595Z,7.49
2022-12-03T13:23:41.254Z,7.59
2022-12-03T13:26:00.511Z,7.58
2022-12-03T13:28:08.010Z,7.41
2022-12-03T13:30:18.947Z,7.42
2022-12-03T13:32:27.653Z,7.17
2022-12-03T13:34:33.869Z,7.14
2022-12-03T13:36:42.113Z,7.17
2022-12-03T13:38:44.796Z,7.26
2022-12-03T13:40:54.925Z,7.14
2022-12-03T13:42:58.235Z,7.23
2022-12-03T13:45:02.159Z,7.01
2022-12-03T13:47:20.697Z,6.87
2022-12-03T13:49:24.348Z,6.98
2022-12-03T13:51:29.875Z,6.95
2022-12-03T13:53:36.863Z,6.94
2022-12-03T13:55:44.980Z,7.00
2022-12-03T13:57:47.512Z,6.95
2022-12-03T13:59:49.936Z,6.85
2022-12-03T14:01:52.319Z,6.52
2022-12-03T14:03:55.233Z,6.47
2022-12-03T14:05:57.477Z,6.43
2022-12-03T14:08:02.266Z,6.51
2022-12-03T14:10:07.189Z,6.73
2022-12-03T14:12:29.022Z,6.64
2022-12-03T14:14:32.331Z,6.54
2022-12-03T14:16:34.853Z,6.55
2022-12-03T14:18:37.186Z,6.36
2022-12-03T14:20:39.416Z,6.43
2022-12-03T14:22:42.256Z,6.38
2022-12-03T14:24:44.822Z,6.39
2022-12-03T14:26:47.031Z,6.55
2022-12-03T14:28:49.552Z,6.40
2022-12-03T14:30:51.889Z,6.46
2022-12-03T14:32:54.240Z,6.44
2022-12-03T14:34:57.046Z,6.43
2022-12-03T14:36:59.331Z,6.38
2022-12-03T14:39:01.631Z,6.58
2022-12-03T14:41:04.197Z,6.37
2022-12-03T14:43:06.384Z,6.36
2022-12-03T14:45:09.394Z,6.15
2022-12-03T14:47:12.963Z,6.24
2022-12-03T14:49:15.217Z,6.29
2022-12-03T14:51:17.504Z,6.29
2022-12-03T14:53:24.207Z,6.23
2022-12-03T14:55:29.458Z,6.26
2022-12-03T14:57:31.787Z,6.13
2022-12-03T14:59:34.561Z,6.25
2022-12-03T15:01:36.875Z,6.17
2022-12-03T15:03:39.147Z,6.15
2022-12-03T15:05:41.904Z,6.13
2022-12-03T15:07:44.318Z,6.14
2022-12-03T15:09:46.584Z,6.16
2022-12-03T15:11:49.217Z,6.10
2022-12-03T15:13:51.471Z,6.13
2022-12-03T15:15:53.752Z,6.10
2022-12-03T15:17:56.276Z,6.02
2022-12-03T15:19:58.548Z,6.07
2022-12-03T15:22:00.807Z,5.79
2022-12-03T15:24:04.168Z,5.91
2022-12-03T15:26:06.575Z,5.90
2022-12-03T15:28:08.870Z,5.90
2022-12-03T15:30:11.423Z,5.79
2022-12-03T15:32:15.267Z,5.67
2022-12-03T15:34:22.534Z,5.64
2022-12-03T15:36:25.805Z,5.67
2022-12-03T15:38:28.065Z,5.62
2022-12-03T15:40:30.738Z,5.47
2022-12-03T15:42:33.554Z,5.32
2022-12-03T15:44:35.914Z,5.30
2022-12-03T15:46:38.568Z,5.41
2022-12-03T15:48:41.493Z,5.37
2022-12-03T15:50:43.759Z,5.30
2022-12-03T15:52:46.087Z,5.29
2022-12-03T15:54:49.791Z,5.41
2022-12-03T15:56:57.031Z,5.31
2022-12-03T15:59:00.278Z,5.25
2022-12-03T16:01:03.255Z,5.39
2022-12-03T16:03:05.943Z,5.29
2022-12-03T16:05:13.027Z,5.21
2022-12-03T16:07:16.028Z,5.18
2022-12-03T16:09:23.652Z,5.25
2022-12-03T16:11:29.444Z,5.13
2022-12-03T16:13:31.746Z,5.15
2022-12-03T16:15:35.682Z,5.21
2022-12-03T16:17:38.060Z,5.13
2022-12-03T16:19:40.314Z,5.08
2022-12-03T16:21:42.849Z,5.12
2022-12-03T16:23:45.154Z,4.98
2022-12-03T16:25:47.486Z,4.96
2022-12-03T16:27:50.127Z,5.22
2022-12-03T16:29:52.678Z,5.06
2022-12-03T16:31:55.713Z,5.03
2022-12-03T16:33:58.359Z,5.07
2022-12-03T16:36:00.655Z,5.08
2022-12-03T16:38:02.896Z,4.97
2022-12-03T16:40:06.574Z,5.00
2022-12-03T16:42:14.241Z,5.20
2022-12-03T16:44:32.968Z,5.12
2022-12-03T16:46:35.837Z,5.12
2022-12-03T16:48:39.025Z,5.07
2022-12-03T16:50:41.359Z,5.11
2022-12-03T16:52:43.912Z,5.02
2022-12-03T16:54:46.206Z,5.07
2022-12-03T16:56:48.442Z,5.12
2022-12-03T16:58:51.134Z,5.18
2022-12-03T17:00:54.431Z,5.08
2022-12-03T17:02:56.815Z,5.08
2022-12-03T17:04:59.973Z,5.08
2022-12-03T17:07:02.659Z,5.10
2022-12-03T17:09:05.101Z,5.07
2022-12-03T17:11:08.068Z,4.98
2022-12-03T17:13:10.961Z,5.03
2022-12-03T17:15:13.902Z,5.03
2022-12-03T17:17:16.712Z,5.12
2022-12-03T17:19:19.523Z,5.06
2022-12-03T17:21:21.816Z,5.04
2022-12-03T17:23:24.324Z,5.02
2022-12-03T17:25:27.845Z,5.09
2022-12-03T17:27:30.615Z,4.92
2022-12-03T17:29:33.242Z,4.95
2022-12-03T17:31:41.619Z,4.87
2022-12-03T17:33:44.935Z,4.92
2022-12-03T17:35:47.507Z,4.80
2022-12-03T17:37:49.771Z,4.78
2022-12-03T17:39:53.014Z,4.81
2022-12-03T17:41:55.642Z,4.77
2022-12-03T17:43:58.024Z,4.78
2022-12-03T17:46:00.386Z,4.74
2022-12-03T17:48:03.713Z,4.78
2022-12-03T17:50:07.984Z,4.66
2022-12-03T17:52:10.590Z,4.65
2022-12-03T17:54:15.861Z,4.58
2022-12-03T17:56:18.504Z,4.56
2022-12-03T17:58:20.898Z,4.39
2022-12-03T18:00:23.493Z,4.39
2022-12-03T18:02:25.996Z,4.44
2022-12-03T18:04:28.298Z,4.56
2022-12-03T18:06:30.640Z,4.54
2022-12-03T18:08:33.183Z,4.50
2022-12-03T18:10:35.752Z,4.54
2022-12-03T18:12:38.300Z,4.55
2022-12-03T18:14:40.956Z,4.53
2022-12-03T18:16:43.267Z,4.46
2022-12-03T18:18:46.696Z,4.51
2022-12-03T18:20:50.347Z,4.49
2022-12-03T18:22:53.137Z,4.39
2022-12-03T18:24:55.663Z,4.28
2022-12-03T18:26:58.391Z,4.36
2022-12-03T18:29:01.503Z,4.36
2022-12-03T18:31:07.141Z,4.27
2022-12-03T18:33:10.232Z,4.30
2022-12-03T18:35:12.932Z,4.26
2022-12-03T18:37:16.275Z,4.37
2022-12-03T18:39:26.896Z,4.40
2022-12-03T18:41:29.818Z,4.49
2022-12-03T18:43:32.633Z,4.45
2022-12-03T18:45:35.760Z,4.44
2022-12-03T18:47:39.362Z,4.42
2022-12-03T18:49:43.354Z,4.46
2022-12-03T18:51:48.129Z,4.25
2022-12-03T18:53:51.661Z,4.39
2022-12-03T18:55:54.372Z,4.43
2022-12-03T18:57:57.062Z,4.42
2022-12-03T19:00:00.200Z,4.42
2022-12-03T19:02:03.422Z,4.51
2022-12-03T19:04:06.233Z,4.60
2022-12-03T19:06:20.566Z,4.55
2022-12-03T19:08:23.918Z,4.56
2022-12-03T19:10:28.101Z,4.51
2022-12-03T19:12:31.637Z,4.59
2022-12-03T19:14:35.727Z,4.52
2022-12-03T19:16:40.362Z,4.45
2022-12-03T19:18:44.083Z,4.47
2022-12-03T19:20:47.032Z,4.57
2022-12-03T19:22:51.209Z,4.45
2022-12-03T19:24:54.033Z,4.42
2022-12-03T19:26:56.844Z,4.50
2022-12-03T19:28:59.984Z,4.55
2022-12-03T19:31:05.413Z,4.42
2022-12-03T19:33:07.703Z,4.29
2022-12-03T19:35:11.613Z,4.31
2022-12-03T19:37:14.447Z,4.25
2022-12-03T19:39:17.496Z,4.40
2022-12-03T19:41:20.823Z,4.42
2022-12-03T19:43:23.871Z,4.43
2022-12-03T19:45:27.944Z,4.30
2022-12-03T19:47:32.729Z,4.41
2022-12-03T19:49:35.394Z,4.44
2022-12-03T19:51:38.362Z,4.48
2022-12-03T19:53:41.847Z,4.46
2022-12-03T19:55:45.793Z,4.44
2022-12-03T19:57:49.451Z,4.37
2022-12-03T19:59:55.732Z,4.36
2022-12-03T20:01:59.581Z,4.26
2022-12-03T20:04:04.223Z,4.32
2022-12-03T20:06:09.179Z,4.32
2022-12-03T20:08:11.695Z,4.37
2022-12-03T20:10:15.662Z,4.48
2022-12-03T20:12:18.311Z,4.43
2022-12-03T20:14:20.627Z,4.47
2022-12-03T20:16:26.931Z,4.42
2022-12-03T20:18:30.830Z,4.45
2022-12-03T20:20:33.212Z,4.69
2022-12-03T20:22:36.120Z,4.65
2022-12-03T20:24:38.891Z,4.57
2022-12-03T20:26:42.112Z,4.45
2022-12-03T20:28:45.419Z,4.45
2022-12-03T20:31:01.040Z,4.36
2022-12-03T20:33:03.777Z,4.43
2022-12-03T20:35:06.697Z,4.54
2022-12-03T20:37:09.328Z,4.47
2022-12-03T20:39:12.451Z,4.52
2022-12-03T20:41:25.462Z,4.49
2022-12-03T20:43:29.243Z,4.45
2022-12-03T20:45:32.013Z,4.45
2022-12-03T20:47:35.049Z,4.52
2022-12-03T20:49:39.525Z,4.52
2022-12-03T20:51:43.191Z,4.55
2022-12-03T20:53:47.253Z,4.48
2022-12-03T20:56:00.177Z,4.58
2022-12-03T20:58:02.797Z,4.49
2022-12-03T21:00:06.462Z,4.47
2022-12-03T21:02:10.389Z,4.35
2022-12-03T21:04:18.144Z,4.34
2022-12-03T21:06:22.662Z,4.30
2022-12-03T21:08:40.660Z,4.34
2022-12-03T21:10:46.893Z,4.20
2022-12-03T21:12:49.457Z,4.25
2022-12-03T21:14:53.044Z,4.20
2022-12-03T21:17:08.349Z,4.21
2022-12-03T21:19:11.606Z,4.26
2022-12-03T21:21:16.225Z,4.26
2022-12-03T21:23:18.905Z,4.38
2022-12-03T21:25:21.857Z,4.41
2022-12-03T21:27:24.613Z,4.33
2022-12-03T21:29:27.721Z,4.29
2022-12-03T21:31:31.848Z,4.28
2022-12-03T21:33:34.638Z,4.30
2022-12-03T21:35:38.607Z,4.42
2022-12-03T21:37:41.353Z,4.42
2022-12-03T21:39:43.666Z,4.40
2022-12-03T21:42:19.409Z,4.38
2022-12-03T21:44:09.955Z,4.41
2022-12-03T21:47:09.561Z,4.56
2022-12-03T21:48:37.691Z,4.57
2022-12-03T21:50:40.283Z,4.47
2022-12-03T21:52:43.290Z,4.48
2022-12-03T21:54:46.352Z,4.30
2022-12-03T21:56:48.927Z,4.28
2022-12-03T21:58:51.577Z,4.39
2022-12-03T22:00:54.053Z,4.33
2022-12-03T22:02:57.237Z,4.51
2022-12-03T22:04:59.642Z,4.64
2022-12-03T22:07:02.305Z,4.62
2022-12-03T22:09:04.925Z,4.53
2022-12-03T22:11:19.451Z,4.67
2022-12-03T22:13:21.658Z,4.70
2022-12-03T22:15:24.243Z,4.74
2022-12-03T22:17:27.146Z,4.57
2022-12-03T22:19:29.423Z,4.76
2022-12-03T22:21:31.934Z,4.55
2022-12-03T22:23:34.491Z,4.50
2022-12-03T22:25:36.905Z,4.48
2022-12-03T22:27:39.455Z,4.44
2022-12-03T22:29:41.717Z,4.32
2022-12-03T22:31:43.987Z,4.36
2022-12-03T22:33:48.504Z,4.39
2022-12-03T22:35:56.176Z,4.42
2022-12-03T22:37:58.436Z,4.33
2022-12-03T22:40:00.982Z,4.24
2022-12-03T22:42:03.573Z,4.25
2022-12-03T22:44:05.880Z,4.39
2022-12-03T22:46:12.923Z,4.47
2022-12-03T22:48:15.511Z,4.28
2022-12-03T22:50:17.970Z,4.39
2022-12-03T22:52:20.700Z,4.45
2022-12-03T22:54:24.272Z,4.41
2022-12-03T22:56:28.576Z,4.29
2022-12-03T22:58:31.754Z,4.45
2022-12-03T23:00:40.203Z,4.33
2022-12-03T23:02:42.512Z,4.50
2022-12-03T23:04:45.099Z,4.49
2022-12-03T23:06:47.341Z,4.61
2022-12-03T23:08:50.815Z,4.68
2022-12-03T23:10:53.380Z,4.70
2022-12-03T23:12:55.581Z,4.57
2022-12-03T23:14:57.768Z,4.55
2022-12-03T23:17:00.450Z,4.60
2022-12-03T23:19:03.427Z,4.45
2022-12-03T23:21:05.780Z,4.24
2022-12-03T23:23:08.262Z,4.47
2022-12-03T23:25:11.932Z,4.38
2022-12-03T23:27:14.244Z,4.39
2022-12-03T23:29:16.755Z,4.39
2022-12-03T23:31:20.573Z,4.41
2022-12-03T23:33:23.553Z,4.36
2022-12-03T23:35:26.026Z,4.44
2022-12-03T23:37:28.266Z,4.55
2022-12-03T23:39:30.508Z,4.52
2022-12-03T23:41:33.120Z,4.55
2022-12-03T23:43:35.456Z,4.55
2022-12-03T23:45:37.751Z,4.56
2022-12-03T23:47:40.201Z,4.55
2022-12-03T23:49:42.662Z,4.55
2022-12-03T23:51:44.909Z,4.43
2022-12-03T23:53:48.064Z,4.40
2022-12-03T23:55:50.266Z,4.30
2022-12-03T23:57:52.489Z,4.19
2022-12-03T23:59:55.138Z,4.28
